• Join FlightAware (Why Join?)
  • Login
  • US Flag 
05:50PM EDT


 

Airport Tracker/Info


-or-


 

Live Flight TrackerFlight Track Log ✈ SWA430 ✈ 21-Apr-2013 ✈ KOAK - KLAS

Flight Track Log - Related Links

Times and Time Zones

All times are in EDT time to prevent confusion due to time zone crossing. See the SWA430 flight status page for this flight to view local times or setup timezone preferences in your user account.

Time Position Orientation Groundspeed Altitude Reporting Facility
EDT Latitude Longitude Course Direction KTS MPH feet Rate Location/Type
04:42PM 37.7500 -122.2833 107° East 197 227 2,800  Level Northern Cal TRACON
04:43PM 37.7500 -122.3500 270° West 215 247 5,400 2,940 Climbing Northern Cal TRACON
04:44PM 37.7536 -122.3603 294° West 217 250 6,200 3,360 Climbing Oakland Center
04:44PM 37.7000 -122.3833 199° South 267 307 8,800 2,100 Climbing Northern Cal TRACON
04:45PM 37.6167 -122.4167 198° South 308 354 9,900 960 Climbing Northern Cal TRACON
04:46PM 37.6042 -122.4203 193° South 301 346 10,100 2,460 Climbing Oakland Center
04:47PM 37.5125 -122.4489 194° South 340 391 13,200 3,240 Climbing Oakland Center
04:48PM 37.2319 -122.2108 107° East  Level FlightAware Approximate
04:48PM 37.4331 -122.3911 150° Southeast 367 422 16,800  Level Oakland Center
04:49PM 37.4097 -122.2636 103° East 377 434 19,700 2,760 Climbing Oakland Center
04:50PM 37.3811 -122.1261 105° East 404 465 22,500 2,820 Climbing Oakland Center
04:51PM 37.3458 -121.9556 105° East 421 484 25,500 2,520 Climbing Oakland Center
04:52PM 37.3150 -121.8075 105° East 436 502 27,700 2,460 Climbing Oakland Center
04:53PM 37.2811 -121.6425 104° East 452 520 30,600 2,040 Climbing Oakland Center
04:54PM 37.2514 -121.4925 104° East 446 513 32,000 660 Climbing Oakland Center
04:55PM 37.2178 -121.3383 105° East 456 525 32,000  Level Oakland Center
04:56PM 37.1847 -121.1794 105° East 470 541 32,000  Level Oakland Center
04:57PM 37.1508 -121.0214 105° East 471 542 32,000  Level Oakland Center
04:58PM 37.1164 -120.8636 105° East 471 542 32,000  Level Oakland Center
04:59PM 37.0828 -120.7014 105° East 492 566 32,000  Level Oakland Center
05:00PM 37.0658 -120.5072 96° East 475 547 32,000  Level Oakland Center
05:01PM 37.0561 -120.3425 94° East 479 551 32,000  Level Oakland Center
05:02PM 37.0472 -120.1775 94° East 476 548 32,000  Level Oakland Center
05:03PM 37.0375 -120.0025 94° East 478 550 32,000  Level Oakland Center
05:04PM 37.0281 -119.8367 94° East 477 549 32,000  Level Oakland Center
05:05PM 37.0175 -119.6706 95° East 478 550 32,000 480 Level Oakland Center
05:06PM 37.0078 -119.5036 94° East 482 555 33,000 480 Climbing Oakland Center
05:07PM 36.9972 -119.3414 95° East 472 543 33,000  Level Oakland Center
05:08PM 36.9869 -119.1756 94° East 477 549 33,000  Level Oakland Center
05:09PM 36.9758 -119.0111 95° East 475 547 33,000  Level Oakland Center
05:10PM 36.9653 -118.8458 95° East 478 550 33,000  Level Oakland Center
05:11PM 36.9506 -118.6481 95° East 478 550 33,000  Level Oakland Center
05:12PM 36.9394 -118.4867 95° East 482 555 33,000  Level Oakland Center
05:13PM 36.9261 -118.3183 96° East 486 559 33,000  Level Oakland Center
05:14PM 36.9133 -118.1525 95° East 481 554 33,000  Level Oakland Center
05:16PM 36.8997 -117.9519 95° East 485 558 33,000 -420 Level Los Angeles Center
05:17PM 36.8875 -117.7867 95° East 483 556 32,200 -900 Descending Los Angeles Center
05:18PM 36.8742 -117.6214 96° East 481 554 31,200 -1,020 Descending Los Angeles Center
05:19PM 36.8608 -117.4558 96° East 481 554 30,200 -1,080 Descending Los Angeles Center
05:20PM 36.8422 -117.2631 97° East 471 542 29,000 -600 Descending Los Angeles Center
05:21PM 36.7881 -117.1261 116° Southeast 471 542 29,000  Level Los Angeles Center
05:22PM 36.7203 -116.9847 121° Southeast 476 548 29,000 -120 Level Los Angeles Center
05:23PM 36.6464 -116.8281 120° Southeast 493 567 28,800 -600 Descending Los Angeles Center
05:24PM 36.5775 -116.6811 120° Southeast 493 567 27,800 -1,080 Descending Los Angeles Center
05:25PM 36.4983 -116.5150 121° Southeast 487 560 26,600 -1,860 Descending Los Angeles Center
05:26PM 36.4319 -116.3767 121° Southeast 471 542 24,000 -2,580 Descending Los Angeles Center
05:27PM 36.3683 -116.2414 120° Southeast 457 526 21,300 -2,580 Descending Los Angeles Center
05:27PM 36.3333 -116.1761 124° Southeast 451 519 19,900 -3,000 Descending Los Angeles Center
05:28PM 36.3056 -116.1264 125° Southeast 449 517 18,700 -2,520 Descending Los Angeles Center
05:29PM 36.2436 -115.9944 120° Southeast 425 489 16,600 -1,380 Descending Los Angeles Center
05:30PM 36.1922 -115.8831 120° Southeast 369 425 16,000 -300 Descending Los Angeles Center
05:31PM 36.1533 -115.7600 111° Southeast 343 395 16,000 -600 Level Los Angeles Center
05:32PM 36.1189 -115.6489 111° Southeast 337 388 14,800 -1,440 Descending Los Angeles Center
05:33PM 36.0883 -115.5550 112° Southeast 333 383 13,300 -1,680 Descending Los Angeles Center
05:33PM 36.0808 -115.5286 109° East 330 380 12,900 -1,680 Descending Los Angeles Center
05:34PM 36.0547 -115.4492 112° Southeast 326 375 11,600 -1,560 Descending Los Angeles Center
05:34PM 36.0483 -115.4267 109° East 324 373 11,300 -720 Descending Los Angeles Center
05:35PM 36.0283 -115.3461 107° East 296 341 10,900 -600 Descending Los Angeles Center
05:35PM 36.0283 -115.3283 90° East 307 353 10,700 -1,200 Descending Los Angeles Center
05:36PM 36.0211 -115.2528 97° East 280 322 9,700 -1,200 Descending Los Angeles Center
05:36PM 36.0206 -115.2336 92° East 281 323 9,500 -1,200 Descending Los Angeles Center
05:37PM 36.0153 -115.1564 95° East 271 312 8,500 -1,080 Descending Los Angeles Center
05:37PM 36.0150 -115.1406 91° East 276 318 8,400 -600 Descending Los Angeles Center
05:38PM 36.0094 -115.0706 96° East 246 283 7,900 -600 Descending Los Angeles Center
05:38PM 36.0075 -115.0417 95° East 250 288 7,800 -720 Descending Los Angeles Center
05:39PM 36.0050 -115.0003 94° East 206 237 7,200 -1,080 Descending Los Angeles Center
05:39PM 36.0056 -114.9736 89° East 216 249 6,700 -1,860 Descending Los Angeles Center
05:40PM 36.0319 -114.9461 40° Northeast 217 250 5,300 -1,860 Descending Los Angeles Center
05:40PM 36.0556 -114.9464 359° North 225 259 4,800 -1,260 Descending Los Angeles Center
05:41PM 36.0711 -114.9864 296° West 204 235 4,100 -840 Descending Los Angeles Center
05:42PM 36.0739 -115.0072 279° West 204 235 3,800 -840 Descending Los Angeles Center
05:42PM 36.0739 -115.0492 270° West 168 193 3,300 -900 Descending Los Angeles Center
05:43PM 36.0744 -115.0728 272° West 176 203 2,900 -840 Descending Los Angeles Center
05:43PM 36.0742 -115.0997 269° West 155 178 2,500 -600 Descending Los Angeles Center
05:44PM 36.0747 -115.1281 271° West 164 189 2,300 -300 Descending Los Angeles Center
05:46PM 36.0667 -115.1500 270° West  Level FlightAware Approximate